Time;durP1;ratioP1;P1;durP2;ratioP2;P2;SDS_P1;SDS_P2;PMS_P1;PMS_P2;Temp;Humidity;BMP_temperature;BMP_pressure;BME280_temperature;BME280_humidity;BME280_pressure;Samples;Min_cycle;Max_cycle;Signal;HPM_P1;HPM_P2
2024/01/12 00:01:57;;;;;;;59.50;27.42;;;;;;;0.19;100.00;103275.34;5074385;28;20037;-71
2024/01/12 00:04:24;;;;;;;39.83;15.32;;;;;;;0.18;100.00;103278.75;5082545;28;20047;-70
2024/01/12 00:06:54;;;;;;;51.08;25.88;;;;;;;0.17;100.00;103276.94;5088239;28;20052;-71
2024/01/12 00:09:21;;;;;;;42.78;14.98;;;;;;;0.18;100.00;103276.16;5081628;28;20048;-71
2024/01/12 00:11:48;;;;;;;39.38;13.57;;;;;;;0.15;100.00;103287.25;5071838;28;20509;-71
2024/01/12 00:14:15;;;;;;;52.40;26.25;;;;;;;0.14;100.00;103297.56;5074948;28;20736;-71
2024/01/12 00:16:47;;;;;;;53.90;27.05;;;;;;;0.13;100.00;103286.28;5079337;28;20047;-71
2024/01/12 00:19:15;;;;;;;56.50;27.25;;;;;;;0.14;100.00;103275.09;5073350;28;20040;-71
2024/01/12 00:21:43;;;;;;;57.95;27.52;;;;;;;0.16;100.00;103269.97;5085311;28;20043;-71
2024/01/12 00:24:10;;;;;;;55.22;25.95;;;;;;;0.17;100.00;103281.25;5073561;28;20055;-71
2024/01/12 00:26:37;;;;;;;58.33;27.52;;;;;;;0.15;100.00;103278.59;5068148;28;20040;-71
2024/01/12 00:29:04;;;;;;;58.92;26.50;;;;;;;0.11;100.00;103282.72;5070241;28;20389;-71
2024/01/12 00:31:33;;;;;;;53.90;25.20;;;;;;;0.07;100.00;103275.59;5080631;28;20067;-71
2024/01/12 00:34:00;;;;;;;37.95;13.25;;;;;;;0.02;100.00;103273.56;5070468;28;20075;-71
2024/01/12 00:36:27;;;;;;;57.00;26.52;;;;;;;0.01;100.00;103279.56;5080767;28;20062;-71
2024/01/12 00:38:56;;;;;;;59.25;27.10;;;;;;;-0.01;100.00;103282.97;5077428;28;20048;-71
2024/01/12 00:41:24;;;;;;;56.78;27.33;;;;;;;-0.02;100.00;103270.81;5075342;28;20059;-70
2024/01/12 00:43:51;;;;;;;59.20;27.15;;;;;;;0.02;100.00;103266.66;5083721;28;20036;-70
2024/01/12 00:46:18;;;;;;;52.90;26.35;;;;;;;0.01;100.00;103270.06;5084780;28;20049;-70
2024/01/12 00:48:45;;;;;;;37.53;13.27;;;;;;;0.00;100.00;103260.53;5080043;28;20067;-70
2024/01/12 00:51:13;;;;;;;42.42;14.43;;;;;;;-0.01;100.00;103258.75;5077882;28;20036;-70
2024/01/12 00:53:44;;;;;;;52.83;25.15;;;;;;;0.01;100.00;103254.50;5092585;28;20080;-71
2024/01/12 00:56:11;;;;;;;56.40;25.83;;;;;;;0.03;100.00;103263.28;5091300;28;20074;-70
2024/01/12 00:58:38;;;;;;;51.20;25.42;;;;;;;0.05;100.00;103265.97;5087134;28;20109;-70
2024/01/12 01:01:05;;;;;;;54.50;25.60;;;;;;;0.05;100.00;103281.53;5083606;28;20051;-71
2024/01/12 01:03:33;;;;;;;55.10;26.25;;;;;;;0.06;100.00;103278.09;5079055;28;20041;-70
2024/01/12 01:06:00;;;;;;;57.85;26.75;;;;;;;0.05;100.00;103273.75;5074027;28;20591;-70
2024/01/12 01:08:27;;;;;;;54.60;27.30;;;;;;;0.07;100.00;103280.78;5081550;28;20044;-71
2024/01/12 01:10:54;;;;;;;40.92;14.57;;;;;;;0.06;100.00;103283.28;5080769;28;20105;-70
2024/01/12 01:13:21;;;;;;;50.63;25.20;;;;;;;0.06;100.00;103291.06;5077651;28;20032;-71
2024/01/12 01:15:49;;;;;;;62.35;27.15;;;;;;;0.05;100.00;103284.13;5084529;28;20040;-71
2024/01/12 01:18:17;;;;;;;61.92;26.30;;;;;;;0.06;100.00;103291.06;5088434;28;20040;-71
2024/01/12 01:20:44;;;;;;;42.70;15.85;;;;;;;0.05;100.00;103294.50;5082261;28;20097;-71
2024/01/12 01:23:12;;;;;;;39.40;15.18;;;;;;;0.03;100.00;103299.59;5083218;28;20562;-70
2024/01/12 01:25:39;;;;;;;34.85;13.20;;;;;;;0.02;100.00;103300.38;5100187;28;20411;-70
2024/01/12 01:28:06;;;;;;;37.55;14.52;;;;;;;0.05;100.00;103299.69;5076147;28;20601;-70
2024/01/12 01:30:34;;;;;;;57.85;26.27;;;;;;;0.08;100.00;103305.00;5085842;28;20264;-70
2024/01/12 01:33:01;;;;;;;57.72;26.75;;;;;;;0.10;100.00;103312.06;5085698;28;20431;-70
2024/01/12 01:35:28;;;;;;;56.28;26.40;;;;;;;0.11;100.00;103307.78;5074187;28;20113;-70
2024/01/12 01:37:55;;;;;;;38.03;14.32;;;;;;;0.09;100.00;103306.81;5080232;28;20039;-70
2024/01/12 01:40:22;;;;;;;45.60;15.65;;;;;;;0.06;100.00;103312.72;5087853;28;20052;-70
2024/01/12 01:42:49;;;;;;;53.33;26.55;;;;;;;0.06;100.00;103304.03;5075196;28;20115;-70
2024/01/12 01:45:17;;;;;;;62.00;27.20;;;;;;;0.06;100.00;103304.03;5083372;28;20054;-70
2024/01/12 01:47:46;;;;;;;64.07;28.30;;;;;;;0.08;100.00;103315.38;5088836;28;20451;-70
2024/01/12 01:50:16;;;;;;;56.33;27.42;;;;;;;0.08;100.00;103317.97;5073665;28;20095;-70
2024/01/12 01:52:45;;;;;;;44.22;14.70;;;;;;;0.09;100.00;103312.00;5071326;28;20043;-71
2024/01/12 01:55:14;;;;;;;60.03;26.50;;;;;;;0.08;100.00;103303.34;5078348;28;20042;-71
2024/01/12 01:57:42;;;;;;;56.63;27.77;;;;;;;0.11;100.00;103302.59;5080796;28;20135;-71
2024/01/12 02:00:12;;;;;;;58.42;28.30;;;;;;;0.12;100.00;103297.47;5086449;28;20119;-70
2024/01/12 02:02:40;;;;;;;36.78;14.43;;;;;;;0.12;100.00;103294.88;5077750;28;20041;-71
2024/01/12 02:05:08;;;;;;;40.60;14.07;;;;;;;0.11;100.00;103287.03;5073625;28;20052;-71
2024/01/12 02:07:39;;;;;;;39.58;14.25;;;;;;;0.12;100.00;103281.03;5071163;28;20048;-71
2024/01/12 02:10:07;;;;;;;36.83;14.18;;;;;;;0.13;100.00;103286.28;5068454;28;20045;-71
2024/01/12 02:12:39;;;;;;;55.45;28.33;;;;;;;0.16;100.00;103288.13;5069986;28;20040;-71
2024/01/12 02:15:07;;;;;;;54.67;27.30;;;;;;;0.19;100.00;103285.72;5084463;28;20048;-71
2024/01/12 02:17:36;;;;;;;43.22;16.20;;;;;;;0.21;100.00;103290.97;5070907;28;20124;-71
2024/01/12 02:20:04;;;;;;;41.50;14.70;;;;;;;0.17;100.00;103292.53;5103727;28;20507;-71
2024/01/12 02:22:31;;;;;;;53.47;27.42;;;;;;;0.18;100.00;103293.44;5084843;28;20048;-71
2024/01/12 02:24:59;;;;;;;54.78;25.40;;;;;;;0.17;100.00;103292.53;5069355;28;20471;-70
2024/01/12 02:27:28;;;;;;;59.35;27.77;;;;;;;0.18;100.00;103289.13;5073278;28;20059;-70
2024/01/12 02:29:57;;;;;;;53.50;27.38;;;;;;;0.14;100.00;103284.59;5073053;28;20040;-71
2024/01/12 02:32:24;;;;;;;54.75;26.98;;;;;;;0.10;100.00;103274.88;5070292;28;20040;-71
2024/01/12 02:34:51;;;;;;;63.50;28.77;;;;;;;0.09;100.00;103279.19;5072685;28;20084;-71
2024/01/12 02:37:18;;;;;;;61.60;28.33;;;;;;;0.09;100.00;103273.97;5081901;28;20164;-71
2024/01/12 02:39:46;;;;;;;56.92;27.98;;;;;;;0.10;100.00;103267.06;5071466;28;20053;-70
2024/01/12 02:42:13;;;;;;;59.05;28.58;;;;;;;0.10;100.00;103272.28;5083483;28;20145;-71
2024/01/12 02:44:41;;;;;;;53.50;28.27;;;;;;;0.10;100.00;103267.06;5081804;28;20531;-70
2024/01/12 02:47:08;;;;;;;55.05;26.83;;;;;;;0.13;100.00;103275.91;5068737;28;20048;-70
2024/01/12 02:49:36;;;;;;;60.58;30.23;;;;;;;0.12;100.00;103271.53;5085177;28;20048;-70
2024/01/12 02:52:03;;;;;;;58.80;29.52;;;;;;;0.13;100.00;103275.03;5080120;28;20042;-70
2024/01/12 02:54:32;;;;;;;55.38;27.38;;;;;;;0.12;100.00;103276.72;5076235;28;20044;-71
2024/01/12 02:56:59;;;;;;;55.53;28.45;;;;;;;0.12;100.00;103278.44;5076728;28;20455;-70
2024/01/12 02:59:26;;;;;;;55.97;28.25;;;;;;;0.12;100.00;103279.31;5081973;28;20054;-70
2024/01/12 03:01:53;;;;;;;58.38;26.65;;;;;;;0.13;100.00;103275.91;5083912;28;20101;-70
2024/01/12 03:04:20;;;;;;;40.40;15.00;;;;;;;0.10;100.00;103275.75;5074732;28;20036;-72
2024/01/12 03:06:47;;;;;;;38.08;15.60;;;;;;;0.09;100.00;103273.06;5071753;28;20445;-73
2024/01/12 03:09:14;;;;;;;45.15;16.63;;;;;;;0.09;100.00;103273.97;5086101;28;20048;-72
2024/01/12 03:11:42;;;;;;;58.88;28.10;;;;;;;0.11;100.00;103263.69;5089520;28;20467;-69
2024/01/12 03:14:09;;;;;;;66.05;30.27;;;;;;;0.15;100.00;103268.22;5073009;28;20036;-70
2024/01/12 03:16:36;;;;;;;60.53;28.35;;;;;;;0.18;100.00;103270.06;5073805;28;20049;-70
2024/01/12 03:19:03;;;;;;;58.15;27.85;;;;;;;0.18;100.00;103264.88;5068473;28;20583;-70
2024/01/12 03:21:31;;;;;;;43.55;16.45;;;;;;;0.17;100.00;103269.16;5071407;28;20048;-70
2024/01/12 03:23:58;;;;;;;55.15;28.63;;;;;;;0.18;100.00;103259.69;5076295;28;20110;-70
2024/01/12 03:26:25;;;;;;;37.00;14.13;;;;;;;0.20;100.00;103266.75;5070065;28;20054;-70
2024/01/12 03:28:52;;;;;;;57.38;28.00;;;;;;;0.18;100.00;103268.38;5079073;28;20052;-70
2024/01/12 03:31:21;;;;;;;55.13;27.33;;;;;;;0.19;100.00;103271.88;5080658;28;20109;-70
2024/01/12 03:33:48;;;;;;;40.00;16.38;;;;;;;0.18;100.00;103257.97;5084359;28;20036;-70
2024/01/12 03:36:16;;;;;;;54.35;27.63;;;;;;;0.17;100.00;103258.78;5067413;28;20068;-70
2024/01/12 03:38:44;;;;;;;52.47;26.50;;;;;;;0.20;100.00;103256.38;5078782;28;20450;-70
2024/01/12 03:41:12;;;;;;;57.60;28.92;;;;;;;0.21;100.00;103246.88;5066853;28;20428;-70
2024/01/12 03:43:39;;;;;;;42.55;15.93;;;;;;;0.20;100.00;103246.00;5084246;28;20496;-70
2024/01/12 03:46:06;;;;;;;58.67;28.60;;;;;;;0.20;100.00;103240.78;5092276;28;20050;-70
2024/01/12 03:48:33;;;;;;;56.22;27.90;;;;;;;0.24;100.00;103241.84;5069922;28;20048;-70
2024/01/12 03:51:01;;;;;;;60.28;29.45;;;;;;;0.26;100.00;103246.28;5069632;28;20052;-71
2024/01/12 03:53:28;;;;;;;58.42;28.48;;;;;;;0.26;100.00;103242.81;5068217;28;20093;-70
2024/01/12 03:55:55;;;;;;;48.03;17.35;;;;;;;0.24;100.00;103244.44;5070855;28;20043;-70
2024/01/12 03:58:22;;;;;;;58.78;28.70;;;;;;;0.24;100.00;103239.25;5077217;28;20043;-70
2024/01/12 04:00:49;;;;;;;38.53;15.25;;;;;;;0.24;100.00;103229.78;5078061;28;20035;-70
2024/01/12 04:03:17;;;;;;;38.08;14.63;;;;;;;0.27;100.00;103242.00;5076383;28;20098;-70
2024/01/12 04:05:44;;;;;;;57.10;28.25;;;;;;;0.29;100.00;103238.66;5068095;28;20518;-70
2024/01/12 04:08:11;;;;;;;51.63;27.67;;;;;;;0.32;100.00;103244.84;5086064;28;20048;-72
2024/01/12 04:10:38;;;;;;;43.58;15.57;;;;;;;0.30;100.00;103252.56;5078803;28;20093;-70
2024/01/12 04:13:05;;;;;;;55.65;27.98;;;;;;;0.28;100.00;103254.19;5067691;28;20144;-70
2024/01/12 04:15:33;;;;;;;52.63;27.98;;;;;;;0.29;100.00;103249.06;5066849;28;20456;-70
2024/01/12 04:18:00;;;;;;;59.05;28.27;;;;;;;0.32;100.00;103253.50;5079457;28;20507;-70
2024/01/12 04:20:27;;;;;;;39.92;15.95;;;;;;;0.29;100.00;103250.78;5083691;28;20055;-70
2024/01/12 04:22:54;;;;;;;55.10;27.15;;;;;;;0.28;100.00;103252.44;5086432;28;20414;-70
2024/01/12 04:25:21;;;;;;;46.22;17.20;;;;;;;0.29;100.00;103246.44;5078428;28;20122;-71
2024/01/12 04:27:48;;;;;;;53.15;27.38;;;;;;;0.28;100.00;103244.66;5085164;28;20048;-70
2024/01/12 04:30:16;;;;;;;36.20;14.88;;;;;;;0.33;100.00;103244.03;5078105;28;20044;-72
2024/01/12 04:32:43;;;;;;;41.03;17.27;;;;;;;0.34;100.00;103244.09;5087058;28;20055;-70
2024/01/12 04:35:11;;;;;;;56.90;27.35;;;;;;;0.34;100.00;103246.69;5076083;28;20060;-70
2024/01/12 04:37:38;;;;;;;54.92;28.23;;;;;;;0.36;100.00;103241.56;5069988;28;20533;-70
2024/01/12 04:40:07;;;;;;;41.65;16.77;;;;;;;0.35;100.00;103235.50;5098051;28;20048;-70
2024/01/12 04:42:34;;;;;;;52.58;26.63;;;;;;;0.35;100.00;103245.00;5081851;28;20298;-70
2024/01/12 04:45:01;;;;;;;57.72;27.45;;;;;;;0.35;100.00;103248.47;5066524;28;20048;-70
2024/01/12 04:47:30;;;;;;;44.33;16.65;;;;;;;0.36;100.00;103250.25;5080740;28;20494;-70
2024/01/12 04:49:58;;;;;;;55.20;27.80;;;;;;;0.34;100.00;103238.91;5077390;28;20048;-69
2024/01/12 04:52:25;;;;;;;48.08;27.23;;;;;;;0.35;100.00;103237.22;5084380;28;20044;-70
2024/01/12 04:54:52;;;;;;;51.33;27.17;;;;;;;0.37;100.00;103230.38;5078256;28;20036;-69
2024/01/12 04:57:19;;;;;;;56.58;28.90;;;;;;;0.38;100.00;103224.38;5073030;28;20105;-71
2024/01/12 04:59:46;;;;;;;39.33;15.13;;;;;;;0.38;100.00;103222.69;5086288;28;20408;-70
2024/01/12 05:02:13;;;;;;;50.22;27.15;;;;;;;0.36;100.00;103216.53;5073357;28;20070;-70
2024/01/12 05:04:40;;;;;;;41.47;15.75;;;;;;;0.36;100.00;103215.59;5067444;28;20127;-70
2024/01/12 05:07:08;;;;;;;50.10;25.52;;;;;;;0.37;100.00;103223.50;5071384;28;20036;-70
2024/01/12 05:09:35;;;;;;;53.90;27.70;;;;;;;0.40;100.00;103217.56;5076366;28;20042;-71
2024/01/12 05:12:04;;;;;;;57.00;26.75;;;;;;;0.41;100.00;103222.81;5092942;28;20052;-72
2024/01/12 05:14:32;;;;;;;36.33;15.05;;;;;;;0.40;100.00;103217.56;5068883;28;20078;-72
2024/01/12 05:17:00;;;;;;;47.30;24.83;;;;;;;0.37;100.00;103218.31;5083015;28;20795;-70
2024/01/12 05:19:27;;;;;;;56.38;28.20;;;;;;;0.38;100.00;103221.78;5086671;28;20048;-71
2024/01/12 05:21:54;;;;;;;61.90;27.73;;;;;;;0.38;100.00;103221.78;5072321;28;20047;-70
2024/01/12 05:24:21;;;;;;;42.47;15.35;;;;;;;0.38;100.00;103221.78;5067396;28;20047;-70
2024/01/12 05:26:48;;;;;;;73.82;26.83;;;;;;;0.37;100.00;103227.78;5077761;28;20044;-70
2024/01/12 05:29:16;;;;;;;49.15;25.52;;;;;;;0.36;100.00;103234.69;5075204;28;20051;-70
2024/01/12 05:31:44;;;;;;;54.65;27.27;;;;;;;0.39;100.00;103236.53;5071996;28;20151;-70
2024/01/12 05:34:11;;;;;;;51.58;25.90;;;;;;;0.39;100.00;103241.72;5080514;28;20105;-71
2024/01/12 05:36:41;;;;;;;54.80;27.42;;;;;;;0.40;100.00;103244.41;5079535;28;20637;-73
2024/01/12 05:39:10;;;;;;;57.88;28.15;;;;;;;0.41;100.00;103253.09;5075761;28;20063;-68
2024/01/12 05:41:38;;;;;;;57.75;27.45;;;;;;;0.39;100.00;103246.91;5076466;28;20043;-69
2024/01/12 05:44:07;;;;;;;54.60;26.17;;;;;;;0.41;100.00;103248.78;5080194;28;20119;-68
2024/01/12 05:46:34;;;;;;;52.95;27.75;;;;;;;0.43;100.00;103249.75;5092509;28;20150;-68
2024/01/12 05:49:04;;;;;;;42.50;16.58;;;;;;;0.44;100.00;103243.75;5078735;28;20043;-68
2024/01/12 05:51:31;;;;;;;49.10;25.45;;;;;;;0.46;100.00;103239.53;5087197;28;20032;-73
2024/01/12 05:53:59;;;;;;;62.22;27.02;;;;;;;0.48;100.00;103237.00;5083814;28;20143;-67
2024/01/12 05:56:27;;;;;;;53.80;26.67;;;;;;;0.48;100.00;103230.94;5081998;28;20535;-67
2024/01/12 05:58:54;;;;;;;61.22;29.73;;;;;;;0.45;100.00;103235.16;5070633;28;20127;-67
2024/01/12 06:01:21;;;;;;;59.03;26.27;;;;;;;0.45;100.00;103245.53;5072009;28;20040;-68
2024/01/12 06:03:48;;;;;;;50.55;27.20;;;;;;;0.49;100.00;103231.00;5083467;28;20047;-68
2024/01/12 06:06:15;;;;;;;54.42;27.33;;;;;;;0.52;100.00;103241.53;5084976;28;20056;-71
2024/01/12 06:08:43;;;;;;;54.88;26.95;;;;;;;0.55;100.00;103243.38;5085820;28;20044;-68
2024/01/12 06:11:10;;;;;;;41.72;15.05;;;;;;;0.55;100.00;103254.69;5073913;28;20044;-67
2024/01/12 06:13:39;;;;;;;43.05;14.20;;;;;;;0.53;100.00;103256.31;5075714;28;20470;-68
2024/01/12 06:16:06;;;;;;;40.40;15.70;;;;;;;0.53;100.00;103258.00;5076106;28;20041;-68
2024/01/12 06:18:33;;;;;;;51.30;26.73;;;;;;;0.53;100.00;103253.72;5082332;28;20094;-67
2024/01/12 06:21:01;;;;;;;47.05;25.52;;;;;;;0.54;100.00;103255.50;5072013;28;20052;-68
2024/01/12 06:23:28;;;;;;;52.65;27.25;;;;;;;0.57;100.00;103258.22;5087881;28;20404;-70
2024/01/12 06:25:55;;;;;;;55.92;28.50;;;;;;;0.56;100.00;103255.56;5073949;28;20071;-70
2024/01/12 06:28:22;;;;;;;44.80;17.42;;;;;;;0.56;100.00;103260.75;5082142;28;20055;-71
2024/01/12 06:30:53;;;;;;;53.30;26.13;;;;;;;0.55;100.00;103269.34;5083051;28;20102;-70
2024/01/12 06:33:21;;;;;;;36.08;15.23;;;;;;;0.53;100.00;103255.38;5067347;28;20393;-70
2024/01/12 06:35:48;;;;;;;38.97;14.85;;;;;;;0.50;100.00;103256.13;5068381;28;20083;-70
2024/01/12 06:38:15;;;;;;;51.60;26.30;;;;;;;0.49;100.00;103254.34;5066570;28;20040;-70
2024/01/12 06:40:43;;;;;;;51.28;26.67;;;;;;;0.49;100.00;103259.53;5066608;28;20147;-70
2024/01/12 06:43:10;;;;;;;49.45;25.33;;;;;;;0.50;100.00;103256.13;5070651;28;20068;-70
2024/01/12 06:45:37;;;;;;;37.03;15.23;;;;;;;0.52;100.00;103251.00;5067661;28;20090;-70
2024/01/12 06:48:05;;;;;;;52.20;27.58;;;;;;;0.52;100.00;103246.72;5067758;28;20045;-70
2024/01/12 06:50:33;;;;;;;51.28;25.40;;;;;;;0.53;100.00;103245.91;5082796;28;20040;-70
2024/01/12 06:53:08;;;;;;;53.50;27.10;;;;;;;0.55;100.00;103251.19;5075787;28;20076;-70
2024/01/12 06:55:36;;;;;;;54.35;26.42;;;;;;;0.54;100.00;103239.91;5085675;28;20183;-69
2024/01/12 06:58:04;;;;;;;63.47;30.30;;;;;;;0.54;100.00;103237.31;5070595;28;20040;-70
2024/01/12 07:00:31;;;;;;;80.60;36.03;;;;;;;0.56;100.00;103234.78;5080560;28;20047;-70
2024/01/12 07:02:59;;;;;;;70.97;34.15;;;;;;;0.58;100.00;103240.97;5084247;28;20439;-70
2024/01/12 07:05:26;;;;;;;71.18;33.55;;;;;;;0.58;100.00;103240.97;5077500;28;20556;-69
2024/01/12 07:07:56;;;;;;;46.88;17.92;;;;;;;0.60;100.00;103241.94;5105249;28;20052;-69
2024/01/12 07:10:23;;;;;;;51.47;27.08;;;;;;;0.63;100.00;103239.47;5082745;28;20472;-70
2024/01/12 07:12:53;;;;;;;38.78;15.93;;;;;;;0.66;100.00;103239.63;5086419;28;20123;-69
2024/01/12 07:15:20;;;;;;;66.50;28.75;;;;;;;0.70;100.00;103238.06;5087877;28;20470;-70
2024/01/12 07:17:50;;;;;;;41.50;15.57;;;;;;;0.65;100.00;103242.16;5089543;28;20036;-69
2024/01/12 07:20:18;;;;;;;41.55;14.60;;;;;;;0.60;100.00;103247.13;5084496;28;20040;-71
2024/01/12 07:22:46;;;;;;;39.25;16.58;;;;;;;0.58;100.00;103246.16;5089077;28;20507;-70
2024/01/12 07:25:13;;;;;;;40.22;15.52;;;;;;;0.59;100.00;103250.53;5079651;28;20040;-69
2024/01/12 07:27:40;;;;;;;50.80;25.35;;;;;;;0.61;100.00;103242.00;5102381;28;20062;-70
2024/01/12 07:30:11;;;;;;;48.83;24.45;;;;;;;0.67;100.00;103238.81;5087114;28;20174;-69
2024/01/12 07:32:38;;;;;;;39.88;14.57;;;;;;;0.67;100.00;103240.50;5089270;28;20543;-69
2024/01/12 07:35:06;;;;;;;59.25;29.10;;;;;;;0.64;100.00;103240.38;5088053;28;20517;-70
2024/01/12 07:37:33;;;;;;;55.08;27.80;;;;;;;0.61;100.00;103230.72;5069249;28;20161;-70
2024/01/12 07:40:00;;;;;;;53.15;26.63;;;;;;;0.65;100.00;103234.38;5067659;28;20044;-70
2024/01/12 07:42:27;;;;;;;52.83;27.48;;;;;;;0.65;100.00;103240.44;5081471;28;20044;-71
2024/01/12 07:44:54;;;;;;;50.42;26.52;;;;;;;0.66;100.00;103241.34;5088165;28;20040;-71
2024/01/12 07:47:22;;;;;;;39.67;16.00;;;;;;;0.65;100.00;103249.94;5088897;28;20040;-69
2024/01/12 07:49:49;;;;;;;34.97;14.70;;;;;;;0.64;100.00;103251.63;5087081;28;20109;-70
2024/01/12 07:52:16;;;;;;;50.75;26.00;;;;;;;0.65;100.00;103247.34;5072465;28;20098;-70
2024/01/12 07:54:47;;;;;;;49.50;25.23;;;;;;;0.70;100.00;103256.25;5081659;28;20044;-70
2024/01/12 07:57:14;;;;;;;48.08;25.42;;;;;;;0.72;100.00;103241.63;5088528;28;20518;-70
2024/01/12 07:59:41;;;;;;;53.42;27.17;;;;;;;0.72;100.00;103249.41;5088649;28;20105;-70
2024/01/12 08:02:08;;;;;;;35.00;15.15;;;;;;;0.70;100.00;103251.94;5087203;28;20127;-70
2024/01/12 08:04:38;;;;;;;46.72;25.98;;;;;;;0.72;100.00;103250.28;5088820;28;20039;-70
2024/01/12 08:07:06;;;;;;;38.95;15.45;;;;;;;0.75;100.00;103259.97;5104834;28;20048;-70
2024/01/12 08:09:33;;;;;;;46.10;23.88;;;;;;;0.78;100.00;103257.50;5085220;28;20051;-70
2024/01/12 08:12:02;;;;;;;46.95;24.67;;;;;;;0.79;100.00;103251.50;5078166;28;20596;-70
2024/01/12 08:14:29;;;;;;;50.10;25.52;;;;;;;0.82;100.00;103253.34;5087252;28;20208;-70
2024/01/12 08:16:56;;;;;;;45.60;23.45;;;;;;;0.83;100.00;103253.44;5089263;28;20495;-70
2024/01/12 08:19:23;;;;;;;34.17;15.02;;;;;;;0.83;100.00;103258.63;5087235;28;20048;-70
2024/01/12 08:21:51;;;;;;;30.88;12.95;;;;;;;0.84;100.00;103254.31;5088650;28;20051;-70
2024/01/12 08:24:22;;;;;;;44.60;23.67;;;;;;;0.88;100.00;103246.75;5081838;28;20132;-70
2024/01/12 08:26:50;;;;;;;45.92;24.27;;;;;;;0.96;100.00;103243.66;5067945;28;20098;-70
2024/01/12 08:29:17;;;;;;;36.10;14.18;;;;;;;0.97;100.00;103238.50;5067037;28;20056;-70
2024/01/12 08:31:44;;;;;;;50.13;25.35;;;;;;;1.00;100.00;103250.75;5069986;28;20040;-70
2024/01/12 08:34:11;;;;;;;48.72;24.70;;;;;;;1.02;100.00;103246.53;5077616;28;20040;-70
2024/01/12 08:36:39;;;;;;;50.17;24.90;;;;;;;1.05;100.00;103252.75;5078540;28;20093;-69
2024/01/12 08:39:06;;;;;;;45.80;24.15;;;;;;;1.10;100.00;103252.97;5087739;28;20066;-70
2024/01/12 08:41:33;;;;;;;36.55;15.60;;;;;;;1.12;100.00;103248.75;5087016;28;20047;-70
2024/01/12 08:44:00;;;;;;;44.35;24.23;;;;;;;1.18;100.00;103250.75;5086988;28;20524;-70
2024/01/12 08:46:28;;;;;;;37.78;14.32;;;;;;;1.24;100.00;103244.13;5100560;28;20048;-70
2024/01/12 08:48:55;;;;;;;42.97;22.80;;;;;;;1.31;100.00;103247.91;5103533;28;20117;-70
2024/01/12 08:51:23;;;;;;;51.63;26.70;;;;;;;1.38;100.00;103244.78;5087138;28;20671;-70
2024/01/12 08:53:51;;;;;;;48.33;25.45;;;;;;;1.45;100.00;103242.44;5087347;28;20048;-70
2024/01/12 08:56:18;;;;;;;56.33;35.75;;;;;;;1.48;100.00;103240.88;5082763;28;20050;-69
2024/01/12 08:58:45;;;;;;;59.70;37.25;;;;;;;1.51;100.00;103234.94;5099344;28;20354;-70
2024/01/12 09:01:13;;;;;;;48.35;27.27;;;;;;;1.54;100.00;103240.25;5087793;28;20044;-70
2024/01/12 09:03:40;;;;;;;50.58;29.85;;;;;;;1.58;100.00;103243.91;5071768;28;20141;-70
2024/01/12 09:06:09;;;;;;;47.92;23.95;;;;;;;1.59;100.00;103246.56;5077997;28;20101;-70
2024/01/12 09:08:36;;;;;;;33.55;18.55;;;;;;;1.64;100.00;103247.66;5106797;28;20101;-70
2024/01/12 09:11:03;;;;;;;44.33;21.98;;;;;;;1.69;100.00;103245.28;5079865;28;20614;-70
2024/01/12 09:13:31;;;;;;;37.20;20.25;;;;;;;1.74;100.00;103243.78;5084900;28;20044;-70
2024/01/12 09:15:58;;;;;;;41.25;22.35;;;;;;;1.81;100.00;103239.75;5090344;28;20055;-70
2024/01/12 09:18:25;;;;;;;43.40;21.83;;;;;;;1.85;100.00;103231.25;5107300;28;20059;-69
2024/01/12 09:20:53;;;;;;;42.20;22.85;;;;;;;1.89;100.00;103230.56;5085297;28;20118;-70
2024/01/12 09:23:20;;;;;;;53.60;33.67;;;;;;;1.97;100.00;103228.31;5071079;28;20066;-70
2024/01/12 09:25:48;;;;;;;43.38;24.25;;;;;;;2.01;100.00;103227.59;5089724;28;20573;-70
2024/01/12 09:28:18;;;;;;;43.50;24.80;;;;;;;2.09;100.00;103222.75;5080293;28;20056;-69
2024/01/12 09:30:46;;;;;;;48.88;28.75;;;;;;;2.14;100.00;103209.09;5071737;28;20504;-70
2024/01/12 09:33:14;;;;;;;37.25;20.42;;;;;;;2.21;100.00;103211.94;5071711;28;20056;-70
2024/01/12 09:35:41;;;;;;;35.70;20.33;;;;;;;2.26;100.00;103213.06;5088744;28;20044;-70
2024/01/12 09:38:09;;;;;;;36.95;20.10;;;;;;;2.32;100.00;103218.50;5071549;28;20466;-70
2024/01/12 09:40:36;;;;;;;43.40;21.98;;;;;;;2.35;100.00;103208.22;5098104;28;20059;-70
2024/01/12 09:43:12;;;;;;;41.10;23.35;;;;;;;2.42;100.00;103217.19;5072831;28;20068;-70
2024/01/12 09:45:45;;;;;;;108.28;67.70;;;;;;;2.49;100.00;103214.00;5086423;28;20408;-70
2024/01/12 09:48:12;;;;;;;33.53;17.80;;;;;;;2.56;100.00;103217.75;5071603;28;20045;-70
2024/01/12 09:50:42;;;;;;;45.70;26.27;;;;;;;2.63;100.00;103217.16;5070942;28;20040;-70
2024/01/12 09:53:10;;;;;;;34.30;18.73;;;;;;;2.70;100.00;103227.00;5071546;28;20040;-70
2024/01/12 09:55:37;;;;;;;49.25;25.35;;;;;;;2.77;100.00;103235.97;5084888;28;20559;-70
2024/01/12 09:58:09;;;;;;;49.30;27.38;;;;;;;2.80;100.00;103236.09;5097284;28;20063;-71
2024/01/12 10:00:40;;;;;;;106.72;67.57;;;;;;;2.79;100.00;103247.34;5090116;28;20044;-70
2024/01/12 10:03:10;;;;;;;41.47;24.05;;;;;;;2.82;100.00;103250.09;5089218;28;20040;-71
2024/01/12 10:05:38;;;;;;;35.53;18.98;;;;;;;2.87;100.00;103255.47;5082648;28;20044;-70
2024/01/12 10:08:08;;;;;;;36.15;16.45;;;;;;;2.87;100.00;103245.94;5083124;28;20074;-70
2024/01/12 10:10:35;;;;;;;35.85;19.33;;;;;;;2.87;100.00;103235.50;5074126;28;20032;-70
2024/01/12 10:13:03;;;;;;;37.15;17.65;;;;;;;2.90;100.00;103224.34;5080615;28;20048;-71
2024/01/12 10:15:39;;;;;;;33.45;17.00;;;;;;;2.93;100.00;103232.25;5077928;28;20384;-70
2024/01/12 10:18:07;;;;;;;33.83;20.13;;;;;;;2.98;100.00;103222.91;5076174;28;20051;-70
2024/01/12 10:20:37;;;;;;;33.17;17.50;;;;;;;3.06;100.00;103228.41;5105945;28;20283;-70
2024/01/12 10:23:05;;;;;;;30.92;17.75;;;;;;;3.09;100.00;103229.44;5080354;28;20056;-70
2024/01/12 10:25:32;;;;;;;35.08;15.95;;;;;;;3.13;100.00;103233.06;5067949;28;20051;-70
2024/01/12 10:27:59;;;;;;;51.10;29.50;;;;;;;3.13;100.00;103235.66;5071543;28;20048;-70
2024/01/12 10:30:29;;;;;;;47.78;29.27;;;;;;;3.10;100.00;103241.63;5102590;28;20050;-70
2024/01/12 10:32:56;;;;;;;57.72;32.28;;;;;;;3.10;100.00;103239.00;5083244;28;20060;-70
2024/01/12 10:35:23;;;;;;;87.88;47.90;;;;;;;3.13;100.00;103237.38;5070097;28;20076;-72
2024/01/12 10:37:57;;;;;;;33.55;16.55;;;;;;;3.15;100.00;103238.31;5072271;28;20040;-71
2024/01/12 10:40:25;;;;;;;30.95;15.07;;;;;;;3.15;100.00;103233.09;5085326;28;20123;-71
2024/01/12 10:42:55;;;;;;;27.27;14.95;;;;;;;3.14;100.00;103237.44;5071468;28;20110;-71
2024/01/12 10:45:25;;;;;;;67.13;34.03;;;;;;;3.17;100.00;103226.25;5080153;28;20111;-71
2024/01/12 10:48:23;;;;;;;30.70;16.77;;;;;;;3.20;100.00;103229.84;5081061;28;20068;-71
2024/01/12 10:50:59;;;;;;;41.45;23.83;;;;;;;3.24;100.00;103226.53;5084620;28;20060;-71
2024/01/12 10:54:01;;;;;;;43.05;22.25;;;;;;;3.31;100.00;103226.78;5088178;28;20156;-71
2024/01/12 10:56:31;;;;;;;28.30;14.88;;;;;;;3.35;100.00;103215.63;5094577;28;20068;-70
2024/01/12 10:58:59;;;;;;;71.47;36.97;;;;;;;3.40;100.00;103209.75;5080185;28;20048;-71
2024/01/12 11:01:26;;;;;;;94.25;52.53;;;;;;;3.48;100.00;103203.94;5089336;28;20091;-71
2024/01/12 11:03:54;;;;;;;27.65;15.15;;;;;;;3.52;100.00;103198.88;5089977;28;20456;-71
2024/01/12 11:06:22;;;;;;;29.88;14.20;;;;;;;3.56;100.00;103194.66;5105631;28;20097;-71
2024/01/12 11:08:50;;;;;;;25.63;13.75;;;;;;;3.55;100.00;103199.00;5089665;28;20051;-71
2024/01/12 11:11:23;;;;;;;27.20;13.23;;;;;;;3.51;100.00;103204.94;5078402;28;20118;-71
2024/01/12 11:13:50;;;;;;;50.80;26.30;;;;;;;3.49;100.00;103197.88;5075981;28;20107;-71